Time;durP1;ratioP1;P1;durP2;ratioP2;P2;SDS_P1;SDS_P2;PMS_P1;PMS_P2;Temp;Humidity;BMP_temperature;BMP_pressure;BME280_temperature;BME280_humidity;BME280_pressure;Samples;Min_cycle;Max_cycle;Signal;HPM_P1;HPM_P2
2022/10/17 00:01:00;;;;;;;36.08;25.62;;;23.10;96.60;;;;;;1849702;77;21121;-83
2022/10/17 00:03:34;;;;;;;37.95;28.92;;;23.20;96.60;;;;;;1884700;75;21202;-85
2022/10/17 00:06:07;;;;;;;34.40;28.17;;;23.20;96.50;;;;;;1851427;77;21127;-85
2022/10/17 00:08:42;;;;;;;36.58;27.80;;;23.20;96.40;;;;;;1832062;76;21133;-86
2022/10/17 00:11:14;;;;;;;40.38;29.75;;;23.30;96.20;;;;;;1845214;76;21208;-85
2022/10/17 00:13:46;;;;;;;52.33;40.73;;;23.30;96.20;;;;;;1838554;77;21122;-85
2022/10/17 00:16:19;;;;;;;44.20;31.73;;;23.30;96.10;;;;;;1848442;77;21251;-85
2022/10/17 00:18:50;;;;;;;37.48;27.75;;;23.40;96.00;;;;;;1850527;76;21117;-82
2022/10/17 00:21:23;;;;;;;42.35;28.98;;;23.40;96.00;;;;;;1843726;76;21537;-84
2022/10/17 00:23:54;;;;;;;32.60;26.20;;;23.40;95.90;;;;;;1821083;77;21138;-85
2022/10/17 00:26:26;;;;;;;34.13;25.00;;;23.50;95.70;;;;;;1813116;78;21613;-85
2022/10/17 00:28:57;;;;;;;30.25;23.40;;;23.50;95.50;;;;;;1808340;79;21088;-85
2022/10/17 00:31:28;;;;;;;35.88;22.95;;;23.50;95.80;;;;;;1836450;77;21106;-84
2022/10/17 00:34:00;;;;;;;25.32;20.55;;;23.50;94.90;;;;;;1848226;77;21595;-84
2022/10/17 00:36:31;;;;;;;31.73;21.85;;;23.60;94.70;;;;;;1850006;77;21662;-84
2022/10/17 00:39:03;;;;;;;26.10;20.23;;;23.60;94.60;;;;;;1845069;77;21198;-83
2022/10/17 00:41:35;;;;;;;26.70;21.17;;;23.70;94.50;;;;;;1851692;76;21156;-85
2022/10/17 00:44:08;;;;;;;28.57;24.02;;;23.80;94.60;;;;;;1896229;75;21634;-82
2022/10/17 00:46:39;;;;;;;29.75;22.45;;;23.80;94.60;;;;;;1911766;74;21613;-86
2022/10/17 00:49:11;;;;;;;28.10;21.42;;;23.80;94.50;;;;;;1913161;75;21119;-84
2022/10/17 00:51:45;;;;;;;30.45;23.22;;;23.90;94.40;;;;;;1900197;73;21183;-85
2022/10/17 00:54:18;;;;;;;29.35;19.52;;;23.90;94.20;;;;;;1906645;75;21125;-84
2022/10/17 00:56:49;;;;;;;32.00;21.20;;;24.00;94.00;;;;;;1906798;73;21143;-85
2022/10/17 00:59:21;;;;;;;34.53;22.50;;;24.00;93.90;;;;;;1918859;75;21693;-73
2022/10/17 01:01:54;;;;;;;25.37;19.07;;;24.00;93.80;;;;;;1913164;74;21068;-74
2022/10/17 01:04:26;;;;;;;31.50;19.60;;;24.00;93.40;;;;;;1890237;75;21572;-74
2022/10/17 01:06:56;;;;;;;24.82;18.80;;;24.10;93.20;;;;;;1891994;75;21591;-74
2022/10/17 01:09:28;;;;;;;23.87;18.55;;;24.10;93.30;;;;;;1894614;75;21186;-75
2022/10/17 01:12:01;;;;;;;21.57;17.27;;;24.20;93.10;;;;;;1881263;75;21111;-75
2022/10/17 01:14:34;;;;;;;22.52;17.40;;;24.20;92.80;;;;;;1888551;75;21637;-75
2022/10/17 01:17:07;;;;;;;26.93;17.50;;;24.20;92.60;;;;;;1892896;75;21619;-75
2022/10/17 01:19:40;;;;;;;26.02;17.30;;;24.30;92.50;;;;;;1878691;75;21171;-76
2022/10/17 01:22:12;;;;;;;22.50;16.75;;;24.30;92.40;;;;;;1889454;75;21176;-75
2022/10/17 01:24:45;;;;;;;21.75;16.42;;;24.40;92.20;;;;;;1879641;75;21568;-73
2022/10/17 01:27:18;;;;;;;23.20;16.15;;;24.40;91.80;;;;;;1874675;75;21612;-75
2022/10/17 01:29:54;;;;;;;41.18;18.85;;;24.40;91.00;;;;;;1888196;74;21225;-74
2022/10/17 01:32:31;;;;;;;25.80;17.37;;;24.50;90.90;;;;;;1890560;75;21253;-74
2022/10/17 01:35:04;;;;;;;25.43;18.45;;;24.60;91.20;;;;;;1894389;75;21595;-73
2022/10/17 01:37:37;;;;;;;24.20;16.90;;;24.60;91.10;;;;;;1886099;75;21156;-74
2022/10/17 01:40:10;;;;;;;27.52;17.65;;;24.70;90.80;;;;;;1887286;75;21627;-75
2022/10/17 01:42:44;;;;;;;18.77;15.15;;;24.70;90.30;;;;;;1881023;74;21574;-75
2022/10/17 01:45:17;;;;;;;26.60;15.80;;;24.80;90.20;;;;;;1895259;75;21638;-77
2022/10/17 01:47:50;;;;;;;21.50;15.30;;;24.80;89.80;;;;;;1867401;75;21166;-77
2022/10/17 01:50:23;;;;;;;24.18;16.70;;;24.80;89.00;;;;;;1877795;75;21183;-77
2022/10/17 01:52:56;;;;;;;19.10;15.60;;;24.90;89.30;;;;;;1884050;74;21114;-77
2022/10/17 01:55:30;;;;;;;23.95;16.27;;;24.90;89.80;;;;;;1891026;75;22753;-76
2022/10/17 01:58:03;;;;;;;24.60;15.60;;;25.00;89.50;;;;;;1892700;74;21107;-76
2022/10/17 02:00:36;;;;;;;22.75;15.05;;;25.00;90.00;;;;;;1892644;75;21229;-76
2022/10/17 02:03:09;;;;;;;21.93;15.35;;;25.10;89.20;;;;;;1894328;73;21072;-77
2022/10/17 02:05:44;;;;;;;20.88;14.60;;;25.10;88.30;;;;;;1912579;74;21193;-77
2022/10/17 02:08:16;;;;;;;22.48;14.43;;;25.20;88.10;;;;;;1900687;75;21206;-76
2022/10/17 02:10:49;;;;;;;18.42;14.73;;;25.30;87.80;;;;;;1853418;77;21798;-77
2022/10/17 02:13:20;;;;;;;17.15;13.88;;;25.30;86.70;;;;;;1852404;75;21143;-77
2022/10/17 02:15:53;;;;;;;21.33;15.23;;;25.40;86.90;;;;;;1869144;74;21163;-76
2022/10/17 02:18:25;;;;;;;19.85;14.63;;;25.50;85.50;;;;;;1824291;77;21628;-77
2022/10/17 02:20:58;;;;;;;21.15;14.53;;;25.60;85.30;;;;;;1823056;78;21598;-76
2022/10/17 02:23:29;;;;;;;20.23;14.20;;;25.60;84.30;;;;;;1846256;76;21209;-77
2022/10/17 02:26:05;;;;;;;23.50;14.45;;;25.70;84.50;;;;;;1868984;75;21645;-77
2022/10/17 02:28:38;;;;;;;19.77;14.68;;;25.80;84.90;;;;;;1853923;76;21094;-77
2022/10/17 02:31:11;;;;;;;18.20;13.93;;;25.80;84.80;;;;;;1856232;75;21232;-77
2022/10/17 02:33:44;;;;;;;22.27;14.93;;;25.90;83.80;;;;;;1804226;77;21593;-76
2022/10/17 02:36:17;;;;;;;19.82;15.00;;;26.10;83.30;;;;;;1871111;75;21120;-75
2022/10/17 02:38:49;;;;;;;20.77;14.38;;;26.10;83.00;;;;;;1895884;74;21116;-77
2022/10/17 02:41:24;;;;;;;24.95;14.47;;;26.20;83.30;;;;;;1899094;74;21173;-76
2022/10/17 02:43:55;;;;;;;23.67;14.00;;;26.20;83.50;;;;;;1874302;75;21192;-75
2022/10/17 02:46:28;;;;;;;21.70;13.93;;;26.30;81.70;;;;;;1866146;75;21543;-77
2022/10/17 02:49:00;;;;;;;21.85;13.83;;;26.40;81.00;;;;;;1868003;75;21202;-77
2022/10/17 02:51:32;;;;;;;21.40;13.50;;;26.50;80.20;;;;;;1872255;76;21490;-77
2022/10/17 02:54:05;;;;;;;19.02;14.03;;;26.60;79.10;;;;;;1866226;75;21152;-77
2022/10/17 02:56:38;;;;;;;18.37;13.05;;;26.70;79.70;;;;;;1864706;76;21669;-77
2022/10/17 02:59:11;;;;;;;20.15;13.62;;;26.80;79.20;;;;;;1864917;76;21160;-77
2022/10/17 03:01:42;;;;;;;18.87;14.50;;;26.90;78.70;;;;;;1858016;76;21168;-77
2022/10/17 03:04:14;;;;;;;18.48;13.35;;;27.00;78.90;;;;;;1868587;76;21219;-77
2022/10/17 03:06:47;;;;;;;20.55;13.50;;;27.10;78.40;;;;;;1862094;75;21646;-77
2022/10/17 03:09:18;;;;;;;21.62;13.93;;;27.30;78.30;;;;;;1852235;76;21089;-76
2022/10/17 03:11:48;;;;;;;18.95;14.87;;;27.40;79.90;;;;;;1861035;76;21171;-75
2022/10/17 03:14:20;;;;;;;16.50;14.07;;;27.50;79.30;;;;;;1866744;76;21125;-76
2022/10/17 03:16:51;;;;;;;18.73;13.72;;;27.60;78.50;;;;;;1872319;76;21812;-77
2022/10/17 03:19:22;;;;;;;20.08;12.70;;;27.70;77.60;;;;;;1863023;76;21167;-77
2022/10/17 03:21:53;;;;;;;16.95;13.08;;;27.80;76.80;;;;;;1870900;75;21140;-77
2022/10/17 03:24:24;;;;;;;22.45;13.28;;;27.80;75.40;;;;;;1867735;76;21520;-77
2022/10/17 03:26:55;;;;;;;18.77;12.90;;;27.90;74.20;;;;;;1874587;76;21191;-76
2022/10/17 03:29:26;;;;;;;18.20;12.58;;;28.00;75.30;;;;;;1854229;76;21764;-75
2022/10/17 03:31:57;;;;;;;15.95;12.47;;;28.10;74.10;;;;;;1869345;75;21074;-76
2022/10/17 03:34:28;;;;;;;18.85;13.10;;;28.20;74.30;;;;;;1857360;75;21164;-75
2022/10/17 03:36:58;;;;;;;22.67;12.73;;;28.30;72.40;;;;;;1893454;75;21276;-76
2022/10/17 03:39:29;;;;;;;16.60;12.35;;;28.40;72.30;;;;;;1864346;76;21203;-76
2022/10/17 03:41:59;;;;;;;16.20;11.85;;;28.40;71.60;;;;;;1857842;76;21139;-76
2022/10/17 03:44:30;;;;;;;18.00;11.68;;;28.40;71.40;;;;;;1866571;75;21592;-76
2022/10/17 03:47:01;;;;;;;19.12;12.37;;;28.50;69.50;;;;;;1868163;76;21493;-77
2022/10/17 03:49:31;;;;;;;16.70;12.93;;;28.50;69.50;;;;;;1863793;76;21222;-77
2022/10/17 03:52:02;;;;;;;14.98;12.13;;;28.60;68.70;;;;;;1875477;76;21498;-76
2022/10/17 03:54:33;;;;;;;17.73;11.70;;;28.60;68.40;;;;;;1862806;76;21179;-76
2022/10/17 03:57:04;;;;;;;16.82;11.33;;;28.70;68.00;;;;;;1874424;76;21624;-76
2022/10/17 03:59:35;;;;;;;14.35;11.45;;;28.70;68.50;;;;;;1875927;76;21188;-76
2022/10/17 04:02:05;;;;;;;17.15;11.60;;;28.70;68.90;;;;;;1860339;76;21156;-77
2022/10/17 04:04:36;;;;;;;14.55;10.72;;;28.70;70.00;;;;;;1858810;76;21683;-77
2022/10/17 04:07:07;;;;;;;16.55;11.78;;;29.00;80.30;;;;;;1854127;76;21199;-76
2022/10/17 04:09:38;;;;;;;18.87;11.65;;;28.80;69.10;;;;;;1859633;76;21756;-76
2022/10/17 04:12:09;;;;;;;16.65;11.75;;;28.80;69.10;;;;;;1859879;76;21163;-76
2022/10/17 04:14:39;;;;;;;18.92;12.43;;;29.10;72.20;;;;;;1864921;76;21101;-76
2022/10/17 04:17:11;;;;;;;19.65;12.60;;;;;;;;;;1859112;76;21139;-77
2022/10/17 04:19:42;;;;;;;18.35;12.23;;;;;;;;;;1854873;76;21128;-77
2022/10/17 04:22:12;;;;;;;15.32;12.28;;;29.30;93.30;;;;;;1870730;76;22335;-77
2022/10/17 04:24:43;;;;;;;14.95;12.25;;;29.40;89.10;;;;;;1857301;76;21144;-77
2022/10/17 04:27:14;;;;;;;17.82;12.45;;;29.20;89.30;;;;;;1866268;76;21690;-77
2022/10/17 04:29:47;;;;;;;15.85;12.00;;;;;;;;;;1867973;76;21584;-76
2022/10/17 04:32:21;;;;;;;16.57;12.65;;;;;;;;;;1875119;76;21105;-75
2022/10/17 04:34:51;;;;;;;19.23;11.93;;;;;;;;;;1861363;76;21647;-75
2022/10/17 04:37:22;;;;;;;14.95;12.10;;;;;;;;;;1861880;76;21160;-75
2022/10/17 04:39:54;;;;;;;19.30;12.03;;;28.80;99.90;;;;;;1857722;75;21173;-75
2022/10/17 04:42:24;;;;;;;16.90;11.90;;;29.80;94.70;;;;;;1869920;76;21175;-76
2022/10/17 04:44:55;;;;;;;17.20;12.43;;;29.70;95.80;;;;;;1853243;75;21522;-76
2022/10/17 04:47:26;;;;;;;15.83;12.82;;;29.50;67.60;;;;;;1898510;74;21504;-76
2022/10/17 04:49:57;;;;;;;17.90;12.47;;;29.60;67.90;;;;;;1908334;74;21108;-76
2022/10/17 04:52:27;;;;;;;16.15;12.73;;;29.70;69.30;;;;;;1868855;75;21237;-76
2022/10/17 04:55:00;;;;;;;17.55;12.65;;;29.70;68.10;;;;;;1874973;74;21084;-76
2022/10/17 04:57:32;;;;;;;19.15;13.20;;;29.70;67.40;;;;;;1891275;74;21139;-75
2022/10/17 05:00:08;;;;;;;16.45;12.13;;;29.80;67.60;;;;;;1871277;75;21159;-77
2022/10/17 05:02:37;;;;;;;19.52;13.28;;;29.80;68.10;;;;;;1877617;75;21155;-77
2022/10/17 05:05:09;;;;;;;17.67;12.68;;;29.80;67.10;;;;;;1895793;74;21080;-76
2022/10/17 05:07:41;;;;;;;16.82;12.13;;;29.70;67.20;;;;;;1883273;75;21135;-77
2022/10/17 05:10:11;;;;;;;16.75;12.25;;;29.70;67.70;;;;;;1881991;75;21119;-77
2022/10/17 05:12:46;;;;;;;21.15;13.45;;;29.70;68.30;;;;;;1875519;75;21137;-77
2022/10/17 05:15:18;;;;;;;17.55;12.88;;;29.80;68.50;;;;;;1884557;74;21140;-76
2022/10/17 05:17:48;;;;;;;15.85;12.82;;;29.80;68.60;;;;;;1891963;75;21205;-76
2022/10/17 05:20:20;;;;;;;17.07;13.58;;;29.80;68.20;;;;;;1892417;74;21667;-77
2022/10/17 05:22:52;;;;;;;18.02;12.75;;;29.80;69.10;;;;;;1880317;75;21872;-76
2022/10/17 05:25:23;;;;;;;17.30;12.88;;;29.90;68.30;;;;;;1870708;75;21069;-76
2022/10/17 05:27:54;;;;;;;18.67;13.03;;;30.00;67.70;;;;;;1884694;75;21077;-76
2022/10/17 05:30:26;;;;;;;15.45;12.40;;;30.00;67.20;;;;;;1891966;75;21181;-76
2022/10/17 05:32:56;;;;;;;17.07;12.40;;;29.90;67.80;;;;;;1868493;75;21124;-77
2022/10/17 05:35:27;;;;;;;17.55;12.47;;;29.90;67.30;;;;;;1891934;74;21147;-77
2022/10/17 05:38:02;;;;;;;17.17;12.85;;;29.80;68.40;;;;;;1882235;75;21167;-76
2022/10/17 05:40:33;;;;;;;17.52;12.40;;;29.80;69.20;;;;;;1822993;76;21196;-75
2022/10/17 05:43:04;;;;;;;21.80;13.22;;;29.90;67.10;;;;;;1846844;77;21152;-76
2022/10/17 05:45:35;;;;;;;18.00;12.95;;;30.00;66.90;;;;;;1849182;76;21152;-76
2022/10/17 05:48:07;;;;;;;17.27;13.10;;;30.00;67.10;;;;;;1852152;76;21152;-76
2022/10/17 05:50:38;;;;;;;15.98;12.88;;;30.10;66.50;;;;;;1847695;75;21065;-77
2022/10/17 05:53:11;;;;;;;18.77;12.65;;;30.10;64.50;;;;;;1814355;77;21591;-77
2022/10/17 05:55:44;;;;;;;19.57;12.85;;;30.10;64.70;;;;;;1844386;76;21616;-77
2022/10/17 05:58:15;;;;;;;17.42;12.43;;;30.10;64.90;;;;;;1850454;76;21548;-76
2022/10/17 06:00:47;;;;;;;17.15;12.07;;;30.20;65.10;;;;;;1846140;75;21175;-74
2022/10/17 06:03:20;;;;;;;15.25;12.47;;;30.20;65.10;;;;;;1815313;78;21201;-76
2022/10/17 06:05:51;;;;;;;18.25;13.40;;;30.20;65.80;;;;;;1815118;77;21137;-76
2022/10/17 06:08:23;;;;;;;17.40;12.90;;;30.20;66.70;;;;;;1822688;79;21567;-78
2022/10/17 06:10:54;;;;;;;17.77;12.85;;;30.20;63.70;;;;;;1862914;76;21143;-76
2022/10/17 06:13:26;;;;;;;20.02;13.03;;;;;;;;;;1835213;77;21529;-75
2022/10/17 06:15:58;;;;;;;17.02;12.63;;;;;;;;;;1856870;76;21149;-76
2022/10/17 06:18:30;;;;;;;15.20;11.78;;;;;;;;;;1838165;77;21129;-77
2022/10/17 06:21:07;;;;;;;20.32;12.63;;;30.50;73.40;;;;;;1829775;78;21166;-76
2022/10/17 06:23:42;;;;;;;17.27;12.55;;;30.40;74.40;;;;;;1840870;77;21241;-76
2022/10/17 06:26:13;;;;;;;16.75;13.30;;;30.50;73.40;;;;;;1850179;77;21218;-76
2022/10/17 06:28:43;;;;;;;17.75;12.30;;;30.60;71.60;;;;;;1831442;75;21573;-75
2022/10/17 06:31:16;;;;;;;15.30;11.45;;;30.60;72.70;;;;;;1829723;77;21251;-75
2022/10/17 06:33:49;;;;;;;14.73;12.35;;;30.60;80.80;;;;;;1827828;76;21208;-78
2022/10/17 06:36:21;;;;;;;17.32;12.43;;;30.70;78.50;;;;;;1861196;75;21141;-76
2022/10/17 06:38:54;;;;;;;15.85;12.73;;;30.70;83.10;;;;;;1849179;76;21111;-76
2022/10/17 06:41:28;;;;;;;17.62;12.73;;;30.60;60.60;;;;;;1852271;77;21168;-79
2022/10/17 06:43:59;;;;;;;16.32;12.05;;;30.60;61.50;;;;;;1841684;77;21050;-76
2022/10/17 06:46:30;;;;;;;17.02;13.32;;;30.60;61.00;;;;;;1838564;76;21735;-77
2022/10/17 06:49:04;;;;;;;17.50;12.18;;;30.60;60.70;;;;;;1838563;77;21164;-77
2022/10/17 06:51:37;;;;;;;14.20;11.78;;;30.60;61.10;;;;;;1825995;77;21096;-77
2022/10/17 06:54:13;;;;;;;16.12;12.60;;;30.50;60.80;;;;;;1859946;76;21178;-77
2022/10/17 06:56:44;;;;;;;17.52;12.35;;;30.50;61.30;;;;;;1847398;76;21146;-78
2022/10/17 06:59:15;;;;;;;16.17;12.88;;;30.50;61.50;;;;;;1851599;77;21096;-78
2022/10/17 07:01:46;;;;;;;15.63;12.95;;;30.50;62.70;;;;;;1837264;77;21639;-77
2022/10/17 07:04:17;;;;;;;19.55;12.53;;;30.50;62.50;;;;;;1809401;79;21161;-77
2022/10/17 07:06:52;;;;;;;15.35;12.53;;;30.40;62.80;;;;;;1805568;77;21160;-76
2022/10/17 07:09:23;;;;;;;19.75;13.20;;;30.40;63.20;;;;;;1848098;77;21127;-77
2022/10/17 07:11:54;;;;;;;18.98;13.05;;;30.40;63.60;;;;;;1839933;77;21227;-77
2022/10/17 07:14:30;;;;;;;18.62;12.98;;;30.40;63.00;;;;;;1820444;77;21186;-76
2022/10/17 07:16:58;;;;;;;17.17;13.00;;;30.40;64.00;;;;;;1823248;76;21160;-78
2022/10/17 07:19:31;;;;;;;15.90;12.65;;;30.40;63.90;;;;;;1815265;77;21205;-76
2022/10/17 07:22:02;;;;;;;13.38;11.85;;;30.40;64.10;;;;;;1843290;77;21629;-77
2022/10/17 07:24:32;;;;;;;16.65;12.93;;;30.40;64.00;;;;;;1834869;77;21154;-77
2022/10/17 07:27:04;;;;;;;17.65;13.35;;;30.40;63.40;;;;;;1839180;75;21246;-78
2022/10/17 07:29:36;;;;;;;18.95;12.90;;;30.40;64.00;;;;;;1822305;77;21264;-77
2022/10/17 07:32:07;;;;;;;16.60;12.70;;;30.40;63.50;;;;;;1851586;75;21551;-77
2022/10/17 07:34:38;;;;;;;17.37;13.30;;;30.30;64.20;;;;;;1851265;77;21559;-78
2022/10/17 07:37:09;;;;;;;15.95;12.98;;;30.30;64.00;;;;;;1854718;75;21587;-77
2022/10/17 07:39:41;;;;;;;16.52;12.53;;;30.30;64.20;;;;;;1851702;76;21068;-77
2022/10/17 07:42:13;;;;;;;15.00;12.78;;;30.30;64.40;;;;;;1841627;75;21088;-78
2022/10/17 07:44:46;;;;;;;18.27;13.28;;;30.20;64.90;;;;;;1809838;77;21171;-77
2022/10/17 07:47:15;;;;;;;17.85;12.63;;;30.20;64.20;;;;;;1845779;75;21200;-77
2022/10/17 07:49:46;;;;;;;18.07;13.45;;;30.20;64.70;;;;;;1867342;76;21089;-76
2022/10/17 07:52:18;;;;;;;16.65;12.68;;;30.20;64.60;;;;;;1828458;78;21157;-76
2022/10/17 07:54:49;;;;;;;18.87;12.93;;;30.20;64.80;;;;;;1867919;76;21182;-76
2022/10/17 07:57:19;;;;;;;16.57;13.50;;;30.20;65.40;;;;;;1867627;75;21202;-77
2022/10/17 07:59:50;;;;;;;20.35;13.65;;;30.20;65.20;;;;;;1830665;77;21175;-78
2022/10/17 08:02:23;;;;;;;18.30;12.93;;;30.20;65.10;;;;;;1865611;75;22028;-77
2022/10/17 08:04:54;;;;;;;20.50;13.60;;;30.20;65.20;;;;;;1857567;76;21144;-78
2022/10/17 08:07:25;;;;;;;17.90;13.15;;;30.20;65.50;;;;;;1831923;77;21671;-76
2022/10/17 08:09:57;;;;;;;18.90;13.48;;;30.20;65.20;;;;;;1822918;78;21211;-78
2022/10/17 08:12:31;;;;;;;19.75;13.32;;;30.20;64.50;;;;;;1866597;76;21092;-78
2022/10/17 08:15:03;;;;;;;17.07;13.22;;;30.20;64.90;;;;;;1834090;77;21193;-77
2022/10/17 08:17:36;;;;;;;15.08;12.98;;;30.20;65.20;;;;;;1874636;76;21202;-77
2022/10/17 08:20:07;;;;;;;18.00;12.82;;;30.10;65.60;;;;;;1864784;76;21156;-77
2022/10/17 08:22:38;;;;;;;21.15;13.72;;;30.10;65.30;;;;;;1828003;77;21113;-77
2022/10/17 08:25:10;;;;;;;16.70;13.30;;;30.10;65.20;;;;;;1875003;76;21156;-78
2022/10/17 08:27:40;;;;;;;17.57;14.07;;;30.10;64.70;;;;;;1879960;76;21190;-75
2022/10/17 08:30:12;;;;;;;15.20;12.75;;;30.10;65.10;;;;;;1830118;77;21615;-75
2022/10/17 08:32:43;;;;;;;16.77;13.83;;;30.00;65.00;;;;;;1866438;76;21525;-76
2022/10/17 08:35:14;;;;;;;16.25;13.10;;;29.90;65.20;;;;;;1830105;77;21743;-75
2022/10/17 08:37:45;;;;;;;18.02;14.07;;;29.90;66.20;;;;;;1869851;76;21188;-77
2022/10/17 08:40:18;;;;;;;17.37;13.43;;;29.90;66.20;;;;;;1864592;76;21085;-74
2022/10/17 08:42:52;;;;;;;19.73;13.70;;;30.00;66.40;;;;;;1826240;76;21090;-76
2022/10/17 08:45:32;;;;;;;17.65;13.30;;;29.90;66.40;;;;;;1865683;76;21638;-76
2022/10/17 08:48:05;;;;;;;19.50;14.10;;;30.00;66.50;;;;;;1874720;74;21143;-76
2022/10/17 08:50:37;;;;;;;16.00;12.63;;;29.90;66.50;;;;;;1890086;75;21142;-77
2022/10/17 08:53:10;;;;;;;17.12;13.53;;;29.90;66.40;;;;;;1890437;75;21480;-77
2022/10/17 08:55:44;;;;;;;19.87;14.07;;;29.90;66.70;;;;;;1888461;75;21201;-76
2022/10/17 08:58:18;;;;;;;19.82;14.83;;;29.90;67.60;;;;;;1887429;75;21076;-76
2022/10/17 09:00:52;;;;;;;20.25;13.22;;;29.90;67.80;;;;;;1887726;75;21531;-77
2022/10/17 09:03:26;;;;;;;18.50;13.18;;;29.80;67.20;;;;;;1888340;74;21136;-77
2022/10/17 09:06:01;;;;;;;17.48;13.10;;;29.90;66.90;;;;;;1892418;75;21606;-77
2022/10/17 09:08:35;;;;;;;19.10;13.83;;;29.80;67.10;;;;;;1891181;75;21119;-76
2022/10/17 09:11:09;;;;;;;20.68;13.45;;;29.80;67.10;;;;;;1899642;74;21122;-76
2022/10/17 09:13:41;;;;;;;20.75;14.33;;;29.70;67.50;;;;;;1888581;73;21683;-77
2022/10/17 09:16:13;;;;;;;18.40;13.38;;;29.70;66.90;;;;;;1891904;75;21131;-76
2022/10/17 09:18:47;;;;;;;16.20;13.35;;;29.70;66.70;;;;;;1903601;72;21076;-76
2022/10/17 09:21:19;;;;;;;17.07;13.05;;;29.60;67.20;;;;;;1901892;73;21520;-78
2022/10/17 09:23:53;;;;;;;17.25;13.22;;;29.60;67.40;;;;;;1894504;75;21127;-76
2022/10/17 09:26:26;;;;;;;19.05;13.88;;;29.50;67.20;;;;;;1843676;76;21111;-75
2022/10/17 09:29:00;;;;;;;15.72;12.90;;;29.50;67.30;;;;;;1792650;79;21160;-76
2022/10/17 09:31:35;;;;;;;16.42;12.60;;;29.50;67.10;;;;;;1866745;76;21167;-76
2022/10/17 09:34:09;;;;;;;19.48;13.62;;;29.40;67.00;;;;;;1891490;75;21680;-76
2022/10/17 09:36:42;;;;;;;16.70;13.25;;;29.40;67.20;;;;;;1891429;75;21143;-77
2022/10/17 09:39:14;;;;;;;17.77;14.45;;;29.40;67.10;;;;;;1866348;75;21625;-77
2022/10/17 09:41:47;;;;;;;16.85;13.75;;;29.30;67.50;;;;;;1873202;75;21223;-76
2022/10/17 09:44:21;;;;;;;17.15;14.33;;;29.30;67.60;;;;;;1870410;75;21214;-78
2022/10/17 09:46:54;;;;;;;16.70;12.25;;;29.30;68.00;;;;;;1871947;75;21112;-80
2022/10/17 09:49:27;;;;;;;17.48;13.43;;;29.30;68.50;;;;;;1884286;75;21619;-79
2022/10/17 09:51:59;;;;;;;21.70;14.25;;;29.20;68.60;;;;;;1896190;75;21197;-79
2022/10/17 09:54:33;;;;;;;16.35;13.55;;;29.20;68.50;;;;;;1897356;74;21170;-79
2022/10/17 09:57:06;;;;;;;19.17;13.83;;;29.20;68.80;;;;;;1896512;75;21543;-79
2022/10/17 09:59:40;;;;;;;16.87;13.95;;;29.20;69.00;;;;;;1899145;75;21552;-80
2022/10/17 10:02:11;;;;;;;21.55;14.40;;;29.20;69.10;;;;;;1895402;75;21052;-80
2022/10/17 10:04:45;;;;;;;16.75;14.07;;;29.20;70.00;;;;;;1898512;75;21707;-79
2022/10/17 10:07:19;;;;;;;17.45;14.00;;;29.10;70.20;;;;;;1893487;75;21177;-79
2022/10/17 10:09:51;;;;;;;21.35;14.38;;;29.10;70.80;;;;;;1898299;75;21238;-80
2022/10/17 10:12:24;;;;;;;18.15;14.15;;;29.10;70.90;;;;;;1896160;75;21107;-77
2022/10/17 10:14:56;;;;;;;18.57;14.13;;;29.00;71.10;;;;;;1900796;75;21649;-81
2022/10/17 10:17:29;;;;;;;20.60;14.65;;;29.00;70.90;;;;;;1892069;75;21776;-80
2022/10/17 10:20:05;;;;;;;21.45;14.33;;;29.00;71.20;;;;;;1893090;74;21654;-79
2022/10/17 10:22:37;;;;;;;18.37;14.68;;;28.90;71.30;;;;;;1907906;74;21736;-78
2022/10/17 10:25:10;;;;;;;18.62;14.63;;;28.90;71.70;;;;;;1909005;75;21169;-79
2022/10/17 10:27:44;;;;;;;18.32;14.68;;;28.80;72.00;;;;;;1901813;74;21575;-76
2022/10/17 10:30:20;;;;;;;18.60;14.58;;;28.80;72.30;;;;;;1905596;74;21536;-79
2022/10/17 10:33:05;;;;;;;28.45;15.48;;;28.80;72.40;;;;;;1900328;75;21233;-80
2022/10/17 10:35:30;;;;;;;;;;;28.80;72.90;;;;;;1907163;75;21569;-83
2022/10/17 10:38:04;;;;;;;19.10;14.95;;;28.70;73.00;;;;;;1906304;75;20128;-78
2022/10/17 10:40:37;;;;;;;20.40;15.28;;;28.70;73.70;;;;;;1910123;74;21122;-79
2022/10/17 10:43:08;;;;;;;20.23;14.98;;;28.70;73.90;;;;;;1898562;75;21634;-77
2022/10/17 10:45:38;;;;;;;21.55;14.93;;;28.60;74.40;;;;;;1908040;75;21115;-78
2022/10/17 10:48:11;;;;;;;22.77;16.20;;;28.60;75.00;;;;;;1907834;75;21083;-79
2022/10/17 10:50:43;;;;;;;24.35;16.37;;;28.60;75.60;;;;;;1862198;75;21590;-78
2022/10/17 10:53:16;;;;;;;27.42;16.95;;;28.50;75.90;;;;;;1840446;77;21151;-79
2022/10/17 10:55:50;;;;;;;22.82;16.60;;;28.50;76.20;;;;;;1856557;75;21518;-77
2022/10/17 10:58:23;;;;;;;24.02;15.98;;;28.50;76.60;;;;;;1851915;75;21179;-78
2022/10/17 11:00:56;;;;;;;20.27;16.30;;;28.40;77.00;;;;;;1819732;77;21155;-78
2022/10/17 11:03:29;;;;;;;21.35;15.88;;;28.40;77.40;;;;;;1859165;76;21232;-78
2022/10/17 11:06:06;;;;;;;20.90;15.90;;;28.30;77.70;;;;;;1842027;77;21195;-77
2022/10/17 11:08:39;;;;;;;22.70;16.30;;;28.30;77.90;;;;;;1821211;78;21174;-78
2022/10/17 11:11:16;;;;;;;21.45;15.70;;;28.30;78.20;;;;;;1854453;77;21131;-78
2022/10/17 11:13:47;;;;;;;22.17;16.55;;;28.20;78.70;;;;;;1854820;77;22325;-78
2022/10/17 11:16:20;;;;;;;23.55;15.85;;;28.20;78.90;;;;;;1852092;77;21191;-78
2022/10/17 11:18:54;;;;;;;26.25;16.85;;;28.20;79.20;;;;;;1851776;77;21244;-77
2022/10/17 11:21:27;;;;;;;25.70;18.17;;;28.10;79.50;;;;;;1854379;77;21166;-78
2022/10/17 11:24:00;;;;;;;23.02;17.45;;;28.10;79.70;;;;;;1864127;77;21148;-79
2022/10/17 11:26:35;;;;;;;23.80;16.97;;;28.10;80.00;;;;;;1859324;77;21166;-79
2022/10/17 11:29:07;;;;;;;24.18;17.85;;;28.00;80.10;;;;;;1855774;77;21142;-77
2022/10/17 11:31:41;;;;;;;23.55;18.02;;;28.00;80.30;;;;;;1867805;75;21528;-78
2022/10/17 11:34:18;;;;;;;28.02;17.95;;;28.00;80.50;;;;;;1855139;77;21657;-79
2022/10/17 11:36:50;;;;;;;26.15;17.75;;;28.00;80.90;;;;;;1859475;77;21614;-77
2022/10/17 11:39:24;;;;;;;22.10;17.95;;;28.00;81.00;;;;;;1862793;75;21648;-79
2022/10/17 11:41:58;;;;;;;27.35;18.75;;;27.90;81.20;;;;;;1866317;75;21210;-78
2022/10/17 11:44:31;;;;;;;;;;;27.90;81.20;;;;;;1865481;77;21055;-79
2022/10/17 11:47:04;;;;;;;24.80;17.73;;;27.90;80.70;;;;;;1849692;77;20524;-78
2022/10/17 11:49:38;;;;;;;27.20;19.40;;;27.90;81.20;;;;;;1838740;77;21524;-79
2022/10/17 11:52:13;;;;;;;24.72;18.77;;;27.80;81.40;;;;;;1825374;78;21190;-79
2022/10/17 11:54:48;;;;;;;29.18;20.08;;;27.80;81.30;;;;;;1829007;78;21176;-79
2022/10/17 11:57:21;;;;;;;22.00;18.30;;;27.80;81.60;;;;;;1821185;78;21151;-79
2022/10/17 11:59:55;;;;;;;25.70;18.90;;;27.80;82.00;;;;;;1823046;78;21177;-79
2022/10/17 12:02:28;;;;;;;22.17;18.57;;;27.80;82.30;;;;;;1849273;75;21662;-79
2022/10/17 12:05:04;;;;;;;25.85;20.48;;;27.70;82.40;;;;;;1901616;75;21115;-77
2022/10/17 12:07:37;;;;;;;28.20;20.00;;;27.70;82.50;;;;;;1895608;75;21083;-79
2022/10/17 12:10:11;;;;;;;22.77;19.00;;;27.70;82.50;;;;;;1896308;75;21108;-79
2022/10/17 12:12:43;;;;;;;23.90;18.92;;;27.70;82.50;;;;;;1894249;75;21206;-77
2022/10/17 12:15:13;;;;;;;24.50;18.95;;;27.70;82.80;;;;;;1900534;74;21577;-79
2022/10/17 12:17:46;;;;;;;29.40;19.73;;;27.70;83.80;;;;;;1893927;74;21535;-79
2022/10/17 12:20:19;;;;;;;27.82;19.00;;;27.70;83.00;;;;;;1894960;75;21575;-80
2022/10/17 12:22:55;;;;;;;24.05;19.17;;;27.70;83.20;;;;;;1891978;74;21119;-78
2022/10/17 12:25:29;;;;;;;29.85;21.12;;;27.60;83.10;;;;;;1905250;74;21139;-77
2022/10/17 12:28:02;;;;;;;26.97;19.55;;;27.60;83.20;;;;;;1890893;74;21129;-77
2022/10/17 12:30:34;;;;;;;27.58;23.32;;;27.60;83.50;;;;;;1888962;75;21146;-78
2022/10/17 12:33:07;;;;;;;33.60;24.85;;;27.60;83.80;;;;;;1900349;74;21112;-78
2022/10/17 12:35:40;;;;;;;32.33;24.65;;;27.60;83.80;;;;;;1908687;74;21686;-76
2022/10/17 12:38:14;;;;;;;32.67;22.95;;;27.60;84.00;;;;;;1899758;75;21115;-77
2022/10/17 12:40:49;;;;;;;27.05;22.27;;;27.50;84.20;;;;;;1893191;75;21143;-78
2022/10/17 12:43:16;;;;;;;28.92;21.50;;;27.50;84.50;;;;;;1889124;75;21136;-78
2022/10/17 12:45:53;;;;;;;31.35;24.60;;;27.50;84.60;;;;;;1899226;75;21084;-78
2022/10/17 12:48:26;;;;;;;33.67;22.30;;;27.50;84.80;;;;;;1903641;74;21220;-78
2022/10/17 12:51:01;;;;;;;29.75;23.02;;;27.50;85.00;;;;;;1899948;74;21181;-79
2022/10/17 12:53:35;;;;;;;34.75;23.57;;;27.40;84.80;;;;;;1918931;74;21126;-78
2022/10/17 12:56:07;;;;;;;31.00;22.75;;;27.40;85.00;;;;;;1902704;74;21060;-79